createdAt,value
2023-03-16T00:00:23.401Z,101248.25
2023-03-16T00:02:50.606Z,101254.38
2023-03-16T00:05:17.934Z,101241.28
2023-03-16T00:07:45.240Z,101244.88
2023-03-16T00:10:13.737Z,101242.16
2023-03-16T00:12:43.916Z,101240.31
2023-03-16T00:15:14.319Z,101227.19
2023-03-16T00:17:41.536Z,101247.16
2023-03-16T00:20:09.569Z,101242.75
2023-03-16T00:22:36.823Z,101209.06
2023-03-16T00:25:05.005Z,101238.03
2023-03-16T00:27:32.246Z,101217.69
2023-03-16T00:29:59.380Z,101226.28
2023-03-16T00:32:29.078Z,101197.78
2023-03-16T00:34:56.684Z,101217.19
2023-03-16T00:37:25.778Z,101222.53
2023-03-16T00:39:56.532Z,101211.91
2023-03-16T00:42:27.920Z,101191.59
2023-03-16T00:44:59.418Z,101196.84
2023-03-16T00:47:30.457Z,101209.31
2023-03-16T00:49:58.758Z,101209.03
2023-03-16T00:52:27.817Z,101200.97
2023-03-16T00:54:56.516Z,101199.13
2023-03-16T00:57:25.473Z,101208.69
2023-03-16T00:59:53.656Z,101195.47
2023-03-16T01:02:30.869Z,101199.06
2023-03-16T01:05:22.563Z,101192.22
2023-03-16T01:09:23.341Z,101192.97
2023-03-16T01:12:30.233Z,101186.81
2023-03-16T01:14:58.552Z,101178.75
2023-03-16T01:17:27.026Z,101168.81
2023-03-16T01:23:24.576Z,101155.56
2023-03-16T01:25:54.646Z,101157.13
2023-03-16T01:30:57.778Z,101151.69
2023-03-16T01:34:35.837Z,101146.25
2023-03-16T01:37:04.498Z,101158.53
2023-03-16T01:39:48.836Z,101150.50
2023-03-16T01:42:16.294Z,101141.56
2023-03-16T01:44:56.328Z,101133.63
2023-03-16T01:47:29.072Z,101132.72
2023-03-16T01:49:57.771Z,101130.31
2023-03-16T01:56:27.677Z,101134.59
2023-03-16T01:59:03.806Z,101101.94
2023-03-16T02:01:32.439Z,101116.06
2023-03-16T02:04:10.443Z,101110.88
2023-03-16T02:06:38.733Z,101102.84
2023-03-16T02:09:08.268Z,101078.16
2023-03-16T02:11:36.788Z,101099.16
2023-03-16T02:14:11.279Z,101092.03
2023-03-16T02:16:39.614Z,101087.66
2023-03-16T02:19:15.648Z,101060.19
2023-03-16T02:21:45.711Z,101066.25
2023-03-16T02:24:12.942Z,101076.06
2023-03-16T02:26:45.292Z,101070.75
2023-03-16T02:29:19.840Z,101073.97
2023-03-16T02:31:48.444Z,101064.72
2023-03-16T02:34:17.578Z,101062.19
2023-03-16T02:36:47.121Z,101043.88
2023-03-16T02:39:15.367Z,101053.53
2023-03-16T02:41:46.772Z,101043.94
2023-03-16T02:44:43.938Z,101043.94
2023-03-16T02:47:23.865Z,101019.41
2023-03-16T02:49:51.046Z,101016.56
2023-03-16T02:52:18.216Z,101029.16
2023-03-16T02:54:45.465Z,101028.19
2023-03-16T02:57:13.851Z,101012.41
2023-03-16T02:59:41.829Z,101016.00
2023-03-16T03:02:11.276Z,101009.09
2023-03-16T03:04:38.896Z,101017.97
2023-03-16T03:07:07.201Z,100989.97
2023-03-16T03:09:53.934Z,101003.91
2023-03-16T03:12:21.367Z,100996.84
2023-03-16T03:14:48.958Z,100960.75
2023-03-16T03:17:19.452Z,100966.00
2023-03-16T03:19:47.899Z,100986.22
2023-03-16T03:22:18.887Z,100984.66
2023-03-16T03:24:46.475Z,100969.72
2023-03-16T03:27:13.980Z,100961.63
2023-03-16T03:29:41.453Z,100974.06
2023-03-16T03:32:09.112Z,100970.59
2023-03-16T03:34:36.682Z,100956.16
2023-03-16T03:37:05.807Z,100955.69
2023-03-16T03:39:33.191Z,100957.47
2023-03-16T03:42:03.271Z,100955.84
2023-03-16T03:44:34.791Z,100962.44
2023-03-16T03:47:02.222Z,100958.09
2023-03-16T03:49:30.251Z,100953.72
2023-03-16T03:51:59.458Z,100954.50
2023-03-16T03:54:27.162Z,100936.69
2023-03-16T03:56:58.504Z,100951.13
2023-03-16T03:59:26.968Z,100958.38
2023-03-16T04:02:11.521Z,100939.34
2023-03-16T04:04:48.336Z,100957.84
2023-03-16T04:07:16.154Z,100957.97
2023-03-16T04:09:44.998Z,100956.38
2023-03-16T04:12:22.718Z,100936.97
2023-03-16T04:14:52.325Z,100944.88
2023-03-16T04:17:20.965Z,100943.13
2023-03-16T04:19:50.415Z,100948.09
2023-03-16T04:22:18.595Z,100950.66
2023-03-16T04:24:47.418Z,100944.06
2023-03-16T04:27:14.996Z,100937.47
2023-03-16T04:29:46.614Z,100939.00
2023-03-16T04:32:15.078Z,100933.72
2023-03-16T04:38:59.294Z,100934.00
2023-03-16T04:41:27.109Z,100908.25
2023-03-16T04:43:59.993Z,100939.38
2023-03-16T04:46:27.845Z,100921.31
2023-03-16T04:48:58.741Z,100918.19
2023-03-16T04:51:43.190Z,100936.28
2023-03-16T04:54:14.820Z,100935.09
2023-03-16T04:56:44.291Z,100924.16
2023-03-16T04:59:28.432Z,100923.63
2023-03-16T05:02:06.037Z,100917.34
2023-03-16T05:04:34.897Z,100934.97
2023-03-16T05:07:03.584Z,100919.13
2023-03-16T05:09:35.330Z,100924.53
2023-03-16T05:12:02.737Z,100922.00
2023-03-16T05:14:31.361Z,100898.28
2023-03-16T05:17:14.983Z,100932.00
2023-03-16T05:19:43.891Z,100926.75
2023-03-16T05:22:11.964Z,100911.28
2023-03-16T05:24:47.192Z,100912.72
2023-03-16T05:27:15.090Z,100874.81
2023-03-16T05:29:46.987Z,100876.31
2023-03-16T05:32:14.479Z,100904.28
2023-03-16T05:34:43.601Z,100909.97
2023-03-16T05:37:11.645Z,100914.94
2023-03-16T05:39:39.289Z,100889.72
2023-03-16T05:42:06.731Z,100890.00
2023-03-16T05:44:47.956Z,100883.66
2023-03-16T05:47:31.570Z,100890.69
2023-03-16T05:49:58.991Z,100878.31
2023-03-16T05:52:32.955Z,100870.22
2023-03-16T05:55:05.843Z,100863.31
2023-03-16T05:57:37.525Z,100844.88
2023-03-16T06:00:13.941Z,100857.31
2023-03-16T06:02:48.673Z,100860.78
2023-03-16T06:05:19.118Z,100870.34
2023-03-16T06:07:49.229Z,100867.56
2023-03-16T06:10:17.036Z,100867.38
2023-03-16T06:12:45.005Z,100876.16
2023-03-16T06:15:13.035Z,100879.75
2023-03-16T06:17:41.699Z,100885.25
2023-03-16T06:20:13.219Z,100859.44
2023-03-16T06:22:43.210Z,100850.00
2023-03-16T06:25:12.802Z,100836.22
2023-03-16T06:27:42.091Z,100832.66
2023-03-16T06:30:14.163Z,100847.66
2023-03-16T06:32:45.901Z,100839.22
2023-03-16T06:35:14.329Z,100828.53
2023-03-16T06:37:47.022Z,100846.97
2023-03-16T06:40:54.140Z,100836.50
2023-03-16T06:43:22.537Z,100819.03
2023-03-16T06:45:53.508Z,100839.84
2023-03-16T06:48:22.051Z,100844.25
2023-03-16T06:50:49.374Z,100853.16
2023-03-16T06:53:25.275Z,100849.75
2023-03-16T06:55:53.871Z,100838.81
2023-03-16T06:58:21.463Z,100849.75
2023-03-16T07:00:48.780Z,100835.84
2023-03-16T07:03:16.003Z,100848.41
2023-03-16T07:05:48.514Z,100848.53
2023-03-16T07:08:18.039Z,100845.25
2023-03-16T07:10:45.176Z,100840.41
2023-03-16T07:13:12.393Z,100817.66
2023-03-16T07:15:39.873Z,100830.34
2023-03-16T07:18:07.267Z,100827.94
2023-03-16T07:20:36.082Z,100827.47
2023-03-16T07:23:06.483Z,100836.63
2023-03-16T07:25:35.659Z,100841.09
2023-03-16T07:28:04.198Z,100867.63
2023-03-16T07:30:36.547Z,100872.09
2023-03-16T07:33:10.037Z,100881.72
2023-03-16T07:35:41.723Z,100866.22
2023-03-16T07:38:11.661Z,100869.00
2023-03-16T07:40:44.027Z,100851.75
2023-03-16T07:43:18.641Z,100872.53
2023-03-16T07:45:53.143Z,100856.50
2023-03-16T07:48:21.105Z,100858.59
2023-03-16T07:50:52.270Z,100862.66
2023-03-16T07:53:19.428Z,100854.41
2023-03-16T07:55:51.281Z,100855.66
2023-03-16T07:58:19.131Z,100866.47
2023-03-16T08:00:48.084Z,100863.88
2023-03-16T08:03:15.314Z,100858.47
2023-03-16T08:05:42.577Z,100836.72
2023-03-16T08:08:16.212Z,100830.38
2023-03-16T08:10:43.859Z,100815.75
2023-03-16T08:13:14.636Z,100828.53
2023-03-16T08:15:47.615Z,100802.03
2023-03-16T08:18:28.315Z,100820.91
2023-03-16T08:20:56.239Z,100828.38
2023-03-16T08:23:26.803Z,100794.13
2023-03-16T08:25:56.310Z,100828.31
2023-03-16T08:28:39.031Z,100827.59
2023-03-16T08:31:10.904Z,100819.94
2023-03-16T08:33:47.336Z,100828.28
2023-03-16T08:36:18.601Z,100822.47
2023-03-16T08:39:05.659Z,100807.00
2023-03-16T08:41:40.875Z,100805.59
2023-03-16T08:44:17.108Z,100789.38
2023-03-16T08:46:45.093Z,100789.19
2023-03-16T08:49:14.868Z,100782.28
2023-03-16T08:51:44.892Z,100791.34
2023-03-16T08:54:12.472Z,100770.56
2023-03-16T08:56:39.585Z,100782.31
2023-03-16T08:59:07.814Z,100774.78
2023-03-16T09:01:36.244Z,100762.69
2023-03-16T09:04:03.843Z,100763.03
2023-03-16T09:06:31.053Z,100755.38
2023-03-16T09:08:59.123Z,100759.19
2023-03-16T09:11:30.762Z,100760.28
2023-03-16T09:13:58.667Z,100764.78
2023-03-16T09:16:26.711Z,100752.72
2023-03-16T09:18:56.034Z,100751.97
2023-03-16T09:21:23.744Z,100768.00
2023-03-16T09:23:51.124Z,100765.63
2023-03-16T09:26:18.172Z,100742.03
2023-03-16T09:28:45.226Z,100749.34
2023-03-16T09:31:19.204Z,100745.22
2023-03-16T09:33:47.233Z,100736.69
2023-03-16T09:36:15.238Z,100748.19
2023-03-16T09:38:44.321Z,100739.56
2023-03-16T09:41:40.474Z,100733.53
2023-03-16T09:44:25.193Z,100754.59
2023-03-16T09:46:54.918Z,100755.56
2023-03-16T09:49:27.825Z,100748.59
2023-03-16T09:52:07.043Z,100748.78
2023-03-16T09:54:58.360Z,100754.94
2023-03-16T09:57:40.790Z,100717.38
2023-03-16T10:00:17.573Z,100744.69
2023-03-16T10:03:25.648Z,100732.53
2023-03-16T10:06:01.119Z,100723.84
2023-03-16T10:08:44.309Z,100721.28
2023-03-16T10:11:29.539Z,100723.97
2023-03-16T10:14:18.682Z,100721.38
2023-03-16T10:16:53.109Z,100710.88
2023-03-16T10:19:34.310Z,100732.78
2023-03-16T10:22:08.706Z,100717.91
2023-03-16T10:24:43.561Z,100703.00
2023-03-16T10:27:25.079Z,100702.19
2023-03-16T10:29:52.138Z,100711.81
2023-03-16T10:32:19.817Z,100706.53
2023-03-16T10:34:58.279Z,100689.03
2023-03-16T10:37:27.729Z,100710.06
2023-03-16T10:39:55.160Z,100713.56
2023-03-16T10:42:22.810Z,100698.59
2023-03-16T10:44:50.036Z,100701.19
2023-03-16T10:47:24.742Z,100677.50
2023-03-16T10:49:52.073Z,100687.06
2023-03-16T10:52:41.044Z,100684.38
2023-03-16T10:55:16.284Z,100689.56
2023-03-16T10:57:48.879Z,100689.50
2023-03-16T11:00:38.155Z,100687.81
2023-03-16T11:03:23.095Z,100687.81
2023-03-16T11:05:59.613Z,100679.84
2023-03-16T11:08:30.993Z,100669.16
2023-03-16T11:11:02.762Z,100668.34
2023-03-16T11:13:37.892Z,100678.00
2023-03-16T11:16:24.134Z,100649.97
2023-03-16T11:18:56.768Z,100682.38
2023-03-16T11:21:30.341Z,100677.16
2023-03-16T11:23:59.989Z,100658.00
2023-03-16T11:26:35.037Z,100655.31
2023-03-16T11:29:37.606Z,100675.31
2023-03-16T11:32:05.946Z,100669.00
2023-03-16T11:34:34.387Z,100653.97
2023-03-16T11:37:14.028Z,100663.44
2023-03-16T11:39:54.127Z,100667.75
2023-03-16T11:42:44.979Z,100665.78
2023-03-16T11:45:15.458Z,100653.19
2023-03-16T11:48:05.237Z,100656.72
2023-03-16T11:50:57.828Z,100647.03
2023-03-16T11:53:30.264Z,100647.59
2023-03-16T11:56:33.306Z,100650.69
2023-03-16T11:59:40.870Z,100651.28
2023-03-16T12:02:35.337Z,100647.31
2023-03-16T12:05:22.577Z,100632.28
2023-03-16T12:07:58.665Z,100632.09
2023-03-16T12:10:31.333Z,100631.53
2023-03-16T12:13:17.133Z,100634.97
2023-03-16T12:15:50.348Z,100629.78
2023-03-16T12:18:30.590Z,100630.88
2023-03-16T12:21:02.754Z,100594.41
2023-03-16T12:23:35.193Z,100608.22
2023-03-16T12:26:03.842Z,100618.66
2023-03-16T12:28:35.092Z,100602.19
2023-03-16T12:31:18.027Z,100623.03
2023-03-16T12:34:08.050Z,100618.06
2023-03-16T12:36:57.964Z,100625.97
2023-03-16T12:39:51.702Z,100612.50
2023-03-16T12:42:33.312Z,100605.44
2023-03-16T12:45:11.925Z,100605.69
2023-03-16T12:47:58.708Z,100576.44
2023-03-16T12:50:26.246Z,100593.06
2023-03-16T12:52:54.402Z,100591.19
2023-03-16T12:55:45.161Z,100584.66
2023-03-16T12:58:12.880Z,100567.88
2023-03-16T13:00:43.257Z,100585.00
2023-03-16T13:03:17.563Z,100582.91
2023-03-16T13:05:50.292Z,100573.78
2023-03-16T13:08:19.750Z,100550.53
2023-03-16T13:11:10.448Z,100558.28
2023-03-16T13:14:13.384Z,100558.09
2023-03-16T13:16:41.362Z,100550.56
2023-03-16T13:19:26.358Z,100548.50
2023-03-16T13:22:24.795Z,100525.72
2023-03-16T13:25:00.767Z,100531.00
2023-03-16T13:27:33.680Z,100519.28
2023-03-16T13:30:02.303Z,100540.16
2023-03-16T13:32:34.071Z,100532.16
2023-03-16T13:35:05.569Z,100515.13
2023-03-16T13:37:33.143Z,100507.31
2023-03-16T13:40:02.929Z,100515.94
2023-03-16T13:42:32.869Z,100516.66
2023-03-16T13:45:13.612Z,100507.97
2023-03-16T13:47:44.547Z,100513.50
2023-03-16T13:50:13.999Z,100497.81
2023-03-16T13:52:44.460Z,100509.78
2023-03-16T13:55:18.836Z,100507.19
2023-03-16T13:57:46.900Z,100502.72
2023-03-16T14:00:18.406Z,100505.16
2023-03-16T14:02:49.082Z,100505.31
2023-03-16T14:05:24.689Z,100508.84
2023-03-16T14:07:53.101Z,100510.72
2023-03-16T14:10:21.954Z,100495.91
2023-03-16T14:12:59.880Z,100488.84
2023-03-16T14:15:31.586Z,100478.59
2023-03-16T14:18:13.997Z,100479.63
2023-03-16T14:20:41.845Z,100486.47
2023-03-16T14:23:24.857Z,100499.31
2023-03-16T14:25:53.799Z,100480.00
2023-03-16T14:28:31.079Z,100492.63
2023-03-16T14:31:07.939Z,100476.38
2023-03-16T14:33:38.106Z,100482.00
2023-03-16T14:36:19.340Z,100484.09
2023-03-16T14:38:49.046Z,100476.09
2023-03-16T14:41:24.578Z,100477.03
2023-03-16T14:43:56.443Z,100484.38
2023-03-16T14:46:30.625Z,100480.97
2023-03-16T14:49:10.845Z,100492.38
2023-03-16T14:51:41.280Z,100487.38
2023-03-16T14:54:14.378Z,100490.97
2023-03-16T14:56:42.650Z,100492.84
2023-03-16T14:59:10.533Z,100496.03
2023-03-16T15:01:38.162Z,100490.84
2023-03-16T15:04:07.560Z,100490.03
2023-03-16T15:06:35.214Z,100485.09
2023-03-16T15:09:03.051Z,100470.66
2023-03-16T15:11:31.895Z,100502.25
2023-03-16T15:14:15.066Z,100496.03
2023-03-16T15:16:44.891Z,100494.28
2023-03-16T15:19:12.001Z,100499.84
2023-03-16T15:21:39.389Z,100484.56
2023-03-16T15:24:11.400Z,100478.03
2023-03-16T15:26:38.900Z,100491.22
2023-03-16T15:29:06.889Z,100491.88
2023-03-16T15:31:34.015Z,100459.97
2023-03-16T15:34:04.006Z,100478.41
2023-03-16T15:36:31.977Z,100484.03
2023-03-16T15:39:02.208Z,100472.00
2023-03-16T15:41:38.136Z,100476.25
2023-03-16T15:44:13.879Z,100452.81
2023-03-16T15:46:41.692Z,100470.69
2023-03-16T15:49:08.920Z,100466.84
2023-03-16T15:51:36.486Z,100470.50
2023-03-16T15:54:06.380Z,100473.94
2023-03-16T15:56:47.280Z,100471.63
2023-03-16T15:59:18.888Z,100469.66
2023-03-16T16:01:48.024Z,100468.56
2023-03-16T16:04:20.194Z,100466.94
2023-03-16T16:06:49.508Z,100463.75
2023-03-16T16:09:16.634Z,100457.91
2023-03-16T16:11:44.873Z,100454.78
2023-03-16T16:14:17.124Z,100456.72
2023-03-16T16:16:46.173Z,100464.06
2023-03-16T16:19:16.795Z,100445.78
2023-03-16T16:21:44.236Z,100447.50
2023-03-16T16:24:11.714Z,100447.31
2023-03-16T16:26:55.376Z,100437.63
2023-03-16T16:29:32.195Z,100440.19
2023-03-16T16:31:59.879Z,100413.97
2023-03-16T16:34:27.474Z,100425.19
2023-03-16T16:36:56.211Z,100433.22
2023-03-16T16:39:24.222Z,100427.44
2023-03-16T16:41:54.865Z,100435.25
2023-03-16T16:44:27.469Z,100438.19
2023-03-16T16:46:55.375Z,100449.81
2023-03-16T16:49:28.521Z,100455.25
2023-03-16T16:51:55.878Z,100445.78
2023-03-16T16:54:26.266Z,100437.41
2023-03-16T16:56:55.424Z,100413.00
2023-03-16T16:59:29.796Z,100421.94
2023-03-16T17:01:57.723Z,100423.16
2023-03-16T17:04:27.421Z,100417.47
2023-03-16T17:06:59.849Z,100416.78
2023-03-16T17:09:29.410Z,100423.19
2023-03-16T17:11:59.815Z,100436.31
2023-03-16T17:14:31.670Z,100427.88
2023-03-16T17:17:02.893Z,100420.16
2023-03-16T17:19:30.327Z,100427.31
2023-03-16T17:21:58.658Z,100417.84
2023-03-16T17:24:26.253Z,100428.50
2023-03-16T17:26:56.324Z,100408.56
2023-03-16T17:29:34.004Z,100410.63
2023-03-16T17:32:03.936Z,100444.03
2023-03-16T17:34:33.258Z,100439.72
2023-03-16T17:37:02.148Z,100448.69
2023-03-16T17:39:34.343Z,100426.88
2023-03-16T17:42:07.244Z,100451.50
2023-03-16T17:44:41.347Z,100449.97
2023-03-16T17:47:22.058Z,100466.69
2023-03-16T17:49:51.040Z,100460.78
2023-03-16T17:52:25.973Z,100463.59
2023-03-16T17:54:54.558Z,100440.88
2023-03-16T17:57:27.666Z,100459.34
2023-03-16T17:59:55.216Z,100455.91
2023-03-16T18:02:39.272Z,100450.84
2023-03-16T18:05:15.988Z,100457.00
2023-03-16T18:07:43.063Z,100451.97
2023-03-16T18:10:16.095Z,100455.56
2023-03-16T18:12:44.574Z,100448.66
2023-03-16T18:15:18.505Z,100458.34
2023-03-16T18:17:46.285Z,100448.88
2023-03-16T18:23:30.846Z,100462.22
2023-03-16T18:26:07.311Z,100454.38
2023-03-16T18:28:35.575Z,100429.94
2023-03-16T18:31:05.502Z,100440.53
2023-03-16T18:33:55.112Z,100466.00
2023-03-16T18:36:38.077Z,100469.56
2023-03-16T18:39:06.892Z,100473.13
2023-03-16T18:41:36.631Z,100467.00
2023-03-16T18:44:18.751Z,100469.69
2023-03-16T18:46:47.443Z,100474.06
2023-03-16T18:49:27.393Z,100475.00
2023-03-16T18:51:55.423Z,100454.03
2023-03-16T18:54:25.190Z,100441.81
2023-03-16T18:56:54.172Z,100480.38
2023-03-16T18:59:21.993Z,100484.78
2023-03-16T19:01:50.236Z,100477.75
2023-03-16T19:04:24.800Z,100490.06
2023-03-16T19:06:56.022Z,100469.06
2023-03-16T19:09:32.483Z,100466.44
2023-03-16T19:12:00.907Z,100456.84
2023-03-16T19:14:32.592Z,100479.63
2023-03-16T19:16:59.820Z,100476.97
2023-03-16T19:19:27.553Z,100473.50
2023-03-16T19:22:06.729Z,100484.91
2023-03-16T19:24:47.215Z,100478.75
2023-03-16T19:27:23.070Z,100474.38
2023-03-16T19:29:52.402Z,100474.41
2023-03-16T19:32:21.288Z,100477.00
2023-03-16T19:34:49.185Z,100470.88
2023-03-16T19:37:19.482Z,100475.25
2023-03-16T19:39:46.807Z,100471.78
2023-03-16T19:42:33.891Z,100475.25
2023-03-16T19:45:01.777Z,100465.66
2023-03-16T19:47:44.342Z,100477.03
2023-03-16T19:50:19.020Z,100491.00
2023-03-16T19:52:47.888Z,100472.59
2023-03-16T19:55:21.149Z,100485.72
2023-03-16T19:57:53.083Z,100475.22
2023-03-16T20:00:25.686Z,100470.84
2023-03-16T20:02:57.416Z,100470.81
2023-03-16T20:05:30.667Z,100468.19
2023-03-16T20:07:59.497Z,100469.06
2023-03-16T20:10:29.620Z,100447.16
2023-03-16T20:13:01.918Z,100435.78
2023-03-16T20:15:34.422Z,100462.03
2023-03-16T20:18:02.750Z,100458.53
2023-03-16T20:20:36.118Z,100451.50
2023-03-16T20:23:03.187Z,100463.72
2023-03-16T20:25:33.047Z,100463.72
2023-03-16T20:28:02.333Z,100448.00
2023-03-16T20:30:31.145Z,100461.09
2023-03-16T20:32:58.810Z,100455.81
2023-03-16T20:35:31.795Z,100465.41
2023-03-16T20:37:59.179Z,100461.94
2023-03-16T20:40:26.450Z,100464.59
2023-03-16T20:42:53.760Z,100461.03
2023-03-16T20:45:27.387Z,100465.47
2023-03-16T20:47:55.090Z,100448.81
2023-03-16T20:50:25.946Z,100467.22
2023-03-16T20:52:54.380Z,100449.66
2023-03-16T20:55:27.389Z,100467.19
2023-03-16T20:57:57.810Z,100478.53
2023-03-16T21:00:34.989Z,100474.13
2023-03-16T21:03:05.724Z,100449.56
2023-03-16T21:05:32.918Z,100467.03
2023-03-16T21:08:00.492Z,100477.50
2023-03-16T21:10:30.837Z,100470.44
2023-03-16T21:12:58.357Z,100480.97
2023-03-16T21:15:29.619Z,100469.56
2023-03-16T21:17:56.783Z,100486.19
2023-03-16T21:20:26.184Z,100457.28
2023-03-16T21:22:53.561Z,100462.50
2023-03-16T21:25:31.352Z,100481.72
2023-03-16T21:28:02.663Z,100486.91
2023-03-16T21:30:32.158Z,100496.50
2023-03-16T21:33:02.092Z,100486.03
2023-03-16T21:35:35.114Z,100485.19
2023-03-16T21:38:12.725Z,100482.56
2023-03-16T21:40:40.043Z,100473.78
2023-03-16T21:43:08.144Z,100481.66
2023-03-16T21:45:37.047Z,100478.97
2023-03-16T21:48:05.563Z,100468.50
2023-03-16T21:50:36.537Z,100481.66
2023-03-16T21:53:04.782Z,100464.09
2023-03-16T21:55:32.421Z,100470.13
2023-03-16T21:58:00.574Z,100490.31
2023-03-16T22:00:30.388Z,100471.00
2023-03-16T22:02:59.777Z,100487.59
2023-03-16T22:05:31.894Z,100458.63
2023-03-16T22:08:01.214Z,100464.78
2023-03-16T22:10:29.863Z,100487.56
2023-03-16T22:12:58.206Z,100449.00
2023-03-16T22:15:26.146Z,100467.44
2023-03-16T22:17:55.339Z,100470.94
2023-03-16T22:20:27.395Z,100451.63
2023-03-16T22:22:56.117Z,100465.66
2023-03-16T22:25:27.271Z,100471.72
2023-03-16T22:27:54.650Z,100448.94
2023-03-16T22:30:27.954Z,100471.63
2023-03-16T22:32:58.164Z,100461.19
2023-03-16T22:35:34.961Z,100444.56
2023-03-16T22:38:06.186Z,100461.13
2023-03-16T22:40:37.412Z,100461.91
2023-03-16T22:43:08.295Z,100454.09
2023-03-16T22:45:35.861Z,100457.56
2023-03-16T22:48:15.274Z,100453.16
2023-03-16T22:50:42.503Z,100447.88
2023-03-16T22:53:15.075Z,100443.56
2023-03-16T22:55:42.301Z,100453.19
2023-03-16T22:58:32.879Z,100450.50
2023-03-16T23:01:02.586Z,100435.53
2023-03-16T23:03:30.389Z,100442.53
2023-03-16T23:05:57.628Z,100435.53
2023-03-16T23:08:26.752Z,100429.44
2023-03-16T23:10:53.968Z,100419.78
2023-03-16T23:13:25.162Z,100428.56
2023-03-16T23:15:53.744Z,100413.66
2023-03-16T23:18:24.144Z,100423.34
2023-03-16T23:20:52.528Z,100437.16
2023-03-16T23:23:19.887Z,100434.63
2023-03-16T23:25:48.221Z,100425.09
2023-03-16T23:28:24.687Z,100409.31
2023-03-16T23:30:51.905Z,100417.06
2023-03-16T23:33:19.478Z,100438.03
2023-03-16T23:35:47.155Z,100439.78
2023-03-16T23:38:14.303Z,100434.66
2023-03-16T23:40:41.781Z,100442.41
2023-03-16T23:43:09.406Z,100437.97
2023-03-16T23:45:42.811Z,100444.25
2023-03-16T23:48:18.231Z,100434.56
2023-03-16T23:50:48.196Z,100436.22
2023-03-16T23:53:17.988Z,100414.41
2023-03-16T23:55:45.973Z,100422.28
2023-03-16T23:58:14.209Z,100431.94
